sensor_id;sensor_type;location;lat;lon;timestamp;pressure;altitude;pressure_sealevel;temperature;humidity
79316;BME280;68779;50.036;19.964;2023-07-16T00:28:59;101440.49;;;22.48;67.56
79316;BME280;68779;50.036;19.964;2023-07-16T00:59:16;101417.91;;;22.03;70.53
79316;BME280;68779;50.036;19.964;2023-07-16T01:59:57;101386.33;;;21.64;72.50
79316;BME280;68779;50.036;19.964;2023-07-16T02:30:15;101391.06;;;21.42;72.93
79316;BME280;68779;50.036;19.964;2023-07-16T03:00:31;101392.99;;;21.14;73.36
79316;BME280;68779;50.036;19.964;2023-07-16T03:30:53;101418.45;;;21.09;73.32
79316;BME280;68779;50.036;19.964;2023-07-16T04:01:10;101411.34;;;21.21;74.24
79316;BME280;68779;50.036;19.964;2023-07-16T05:01:48;101461.76;;;22.00;70.44
79316;BME280;68779;50.036;19.964;2023-07-16T06:02:35;101474.18;;;24.03;65.42
79316;BME280;68779;50.036;19.964;2023-07-16T06:32:50;101478.00;;;25.17;61.26
79316;BME280;68779;50.036;19.964;2023-07-16T07:03:09;101497.11;;;26.19;56.32
79316;BME280;68779;50.036;19.964;2023-07-16T07:33:22;101503.56;;;27.03;51.69
79316;BME280;68779;50.036;19.964;2023-07-16T09:04:36;101557.16;;;29.39;45.44
79316;BME280;68779;50.036;19.964;2023-07-16T09:34:53;101552.99;;;30.03;43.81
79316;BME280;68779;50.036;19.964;2023-07-16T10:18:05;101552.66;;;31.62;38.95
79316;BME280;68779;50.036;19.964;2023-07-16T10:48:24;101521.55;;;32.99;35.77
79316;BME280;68779;50.036;19.964;2023-07-16T11:18:41;101513.44;;;35.33;31.68
79316;BME280;68779;50.036;19.964;2023-07-16T11:48:59;101500.74;;;36.32;30.00
79316;BME280;68779;50.036;19.964;2023-07-16T12:19:13;101482.59;;;37.04;30.05
79316;BME280;68779;50.036;19.964;2023-07-16T12:49:27;101468.12;;;37.43;29.58
79316;BME280;68779;50.036;19.964;2023-07-16T13:19:41;101457.68;;;38.49;28.86
79316;BME280;68779;50.036;19.964;2023-07-16T13:49:56;101447.06;;;38.40;27.21
79316;BME280;68779;50.036;19.964;2023-07-16T14:20:14;101458.74;;;38.66;26.55
79316;BME280;68779;50.036;19.964;2023-07-16T14:50:33;101443.83;;;39.10;28.09
79316;BME280;68779;50.036;19.964;2023-07-16T15:20:56;101417.41;;;40.29;26.14
79316;BME280;68779;50.036;19.964;2023-07-16T15:51:12;101407.52;;;36.96;30.60
79316;BME280;68779;50.036;19.964;2023-07-16T16:21:26;101445.54;;;33.70;38.60
79316;BME280;68779;50.036;19.964;2023-07-16T16:51:43;101449.45;;;32.47;42.89
79316;BME280;68779;50.036;19.964;2023-07-16T17:21:57;101443.34;;;32.13;46.10
79316;BME280;68779;50.036;19.964;2023-07-16T18:22:43;101505.80;;;30.76;49.03
79316;BME280;68779;50.036;19.964;2023-07-16T18:52:57;101546.02;;;30.05;50.07
79316;BME280;68779;50.036;19.964;2023-07-16T19:23:12;101563.97;;;29.88;51.09
79316;BME280;68779;50.036;19.964;2023-07-16T19:53:26;101613.10;;;29.34;52.95
79316;BME280;68779;50.036;19.964;2023-07-16T20:23:43;101612.13;;;28.54;54.83
79316;BME280;68779;50.036;19.964;2023-07-16T20:53:59;101659.26;;;27.74;58.26
79316;BME280;68779;50.036;19.964;2023-07-16T21:24:17;101656.92;;;27.23;59.24
79316;BME280;68779;50.036;19.964;2023-07-16T21:54:44;101652.28;;;26.56;60.76
79316;BME280;68779;50.036;19.964;2023-07-16T22:25:03;101669.19;;;26.12;61.81
79316;BME280;68779;50.036;19.964;2023-07-16T22:55:19;101688.89;;;25.79;66.09
79316;BME280;68779;50.036;19.964;2023-07-16T23:25:33;101707.67;;;25.59;66.53
79316;BME280;68779;50.036;19.964;2023-07-16T23:55:50;101700.87;;;25.35;67.48
